Time;durP1;ratioP1;P1;durP2;ratioP2;P2;SDS_P1;SDS_P2;PMS_P1;PMS_P2;Temp;Humidity;BMP_temperature;BMP_pressure;BME280_temperature;BME280_humidity;BME280_pressure;Samples;Min_cycle;Max_cycle;Signal;HPM_P1;HPM_P2
2022/12/03 00:02:07;;;;;;;21.13;12.77;;;2.60;99.90;;;;;;5052659;28;20072;-65
2022/12/03 00:04:33;;;;;;;25.40;13.70;;;2.60;99.90;;;;;;5052006;28;20040;-66
2022/12/03 00:06:58;;;;;;;21.45;13.18;;;2.60;99.90;;;;;;5052513;28;20029;-66
2022/12/03 00:09:24;;;;;;;21.00;12.45;;;2.60;99.90;;;;;;5052127;28;20036;-65
2022/12/03 00:11:50;;;;;;;20.70;12.93;;;2.60;99.90;;;;;;5052353;28;20045;-66
2022/12/03 00:14:15;;;;;;;24.05;12.98;;;2.60;99.90;;;;;;5055910;28;20036;-66
2022/12/03 00:16:41;;;;;;;25.00;13.50;;;2.60;99.90;;;;;;5056112;28;20122;-65
2022/12/03 00:19:06;;;;;;;23.15;13.50;;;2.60;99.90;;;;;;5056805;28;20036;-66
2022/12/03 00:21:33;;;;;;;24.65;13.50;;;2.60;99.90;;;;;;5056042;28;20032;-67
2022/12/03 00:23:58;;;;;;;23.52;13.85;;;2.60;99.90;;;;;;5056457;28;20527;-66
2022/12/03 00:26:24;;;;;;;22.52;13.52;;;2.60;99.90;;;;;;5055955;28;20112;-67
2022/12/03 00:28:50;;;;;;;22.20;13.57;;;2.60;99.90;;;;;;5056340;28;20025;-66
2022/12/03 00:31:15;;;;;;;24.48;14.63;;;2.60;99.90;;;;;;5055999;28;20477;-66
2022/12/03 00:33:41;;;;;;;21.10;13.10;;;2.60;99.90;;;;;;5055752;28;20119;-66
2022/12/03 00:36:07;;;;;;;22.38;14.10;;;2.70;99.90;;;;;;5055901;28;20045;-65
2022/12/03 00:38:33;;;;;;;22.17;13.88;;;2.60;99.90;;;;;;5055907;28;20037;-66
2022/12/03 00:40:58;;;;;;;23.98;14.93;;;2.70;99.90;;;;;;5056194;28;20025;-67
2022/12/03 00:43:24;;;;;;;21.00;13.10;;;2.60;99.90;;;;;;5055593;28;20036;-66
2022/12/03 00:45:49;;;;;;;20.90;12.75;;;2.60;99.90;;;;;;5055509;28;20408;-65
2022/12/03 00:48:15;;;;;;;23.88;14.15;;;2.70;99.90;;;;;;5055820;28;20061;-65
2022/12/03 00:50:41;;;;;;;22.15;13.63;;;2.70;99.90;;;;;;5055365;28;20111;-67
2022/12/03 00:53:06;;;;;;;22.13;12.95;;;2.70;99.90;;;;;;5055528;28;20469;-65
2022/12/03 00:55:32;;;;;;;21.42;12.85;;;2.70;99.90;;;;;;5054979;28;20036;-65
2022/12/03 00:57:58;;;;;;;21.13;12.00;;;2.70;99.90;;;;;;5055367;28;20194;-65
2022/12/03 01:00:24;;;;;;;18.65;11.52;;;2.70;99.90;;;;;;5055593;28;20161;-65
2022/12/03 01:02:52;;;;;;;22.67;12.20;;;2.70;99.90;;;;;;5055291;28;20121;-66
2022/12/03 01:05:19;;;;;;;22.50;12.88;;;2.70;99.90;;;;;;5055569;28;20366;-66
2022/12/03 01:07:45;;;;;;;21.92;13.32;;;2.70;99.90;;;;;;5055153;28;21027;-66
2022/12/03 01:10:11;;;;;;;24.08;13.93;;;2.70;99.90;;;;;;5055132;28;20112;-65
2022/12/03 01:12:37;;;;;;;23.08;13.60;;;2.70;99.90;;;;;;5054940;28;20036;-65
2022/12/03 01:15:04;;;;;;;23.80;13.55;;;2.70;99.90;;;;;;5055082;28;20361;-66
2022/12/03 01:17:29;;;;;;;24.38;14.45;;;2.70;99.90;;;;;;5054319;28;20037;-65
2022/12/03 01:19:56;;;;;;;22.30;13.38;;;2.70;99.90;;;;;;5055414;28;20051;-65
2022/12/03 01:22:22;;;;;;;25.25;12.55;;;2.70;99.90;;;;;;5055002;28;20048;-66
2022/12/03 01:24:47;;;;;;;20.92;11.82;;;2.70;99.90;;;;;;5053042;28;20108;-66
2022/12/03 01:27:13;;;;;;;23.98;14.02;;;2.70;99.90;;;;;;5055172;28;20025;-66
2022/12/03 01:29:39;;;;;;;21.80;13.40;;;2.70;99.90;;;;;;5054414;28;20457;-66
2022/12/03 01:32:17;;;;;;;24.58;13.73;;;2.60;99.90;;;;;;5055294;28;20029;-66
2022/12/03 01:34:47;;;;;;;24.80;13.55;;;2.70;99.90;;;;;;5054607;28;20083;-66
2022/12/03 01:37:14;;;;;;;24.40;13.25;;;2.70;99.90;;;;;;5054567;28;20059;-66
2022/12/03 01:39:40;;;;;;;22.48;12.32;;;2.70;99.90;;;;;;5054092;28;20033;-66
2022/12/03 01:42:07;;;;;;;22.15;13.77;;;2.70;99.90;;;;;;5054827;28;20032;-65
2022/12/03 01:44:35;;;;;;;22.02;12.98;;;2.70;99.90;;;;;;5054337;28;20497;-66
2022/12/03 01:47:03;;;;;;;19.67;12.48;;;2.70;99.90;;;;;;5053716;28;20061;-66
2022/12/03 01:49:41;;;;;;;24.05;12.88;;;2.70;99.90;;;;;;5054414;28;20100;-69
2022/12/03 01:52:14;;;;;;;21.13;12.05;;;2.70;99.90;;;;;;5054781;28;20028;-65
2022/12/03 01:54:43;;;;;;;22.42;13.07;;;2.70;99.90;;;;;;5054335;28;20043;-65
2022/12/03 01:57:33;;;;;;;25.05;14.40;;;2.70;99.90;;;;;;5054730;28;20029;-65
2022/12/03 02:00:00;;;;;;;20.95;13.40;;;2.70;99.90;;;;;;5053242;28;20021;-65
2022/12/03 02:02:28;;;;;;;23.75;12.68;;;2.70;99.90;;;;;;5052483;28;20358;-65
2022/12/03 02:04:55;;;;;;;25.60;13.70;;;2.70;99.90;;;;;;5054277;28;20028;-65
2022/12/03 02:07:25;;;;;;;23.50;13.18;;;2.70;99.90;;;;;;5054617;28;20032;-65
2022/12/03 02:09:52;;;;;;;23.27;13.00;;;2.70;99.90;;;;;;5054084;28;20028;-65
2022/12/03 02:12:23;;;;;;;24.55;13.63;;;2.70;99.90;;;;;;5054403;28;20029;-66
2022/12/03 02:14:48;;;;;;;24.13;13.98;;;2.70;99.90;;;;;;5054057;28;20100;-66
2022/12/03 02:17:15;;;;;;;23.92;14.00;;;2.70;99.90;;;;;;5053800;28;20557;-66
2022/12/03 02:19:41;;;;;;;23.40;13.63;;;2.70;99.90;;;;;;5052480;28;20047;-67
2022/12/03 02:22:29;;;;;;;25.05;13.18;;;2.80;99.90;;;;;;5054120;28;20025;-66
2022/12/03 02:25:17;;;;;;;21.25;11.70;;;2.80;99.90;;;;;;5053654;28;20037;-66
2022/12/03 02:27:43;;;;;;;21.50;13.02;;;2.80;99.90;;;;;;5049822;28;20064;-66
2022/12/03 02:30:10;;;;;;;22.60;12.50;;;2.80;99.90;;;;;;5053896;28;20033;-66
2022/12/03 02:32:37;;;;;;;23.98;12.93;;;2.80;99.90;;;;;;5053273;28;20029;-67
2022/12/03 02:35:03;;;;;;;21.02;12.10;;;2.80;99.90;;;;;;5053256;28;20120;-67
2022/12/03 02:37:32;;;;;;;24.80;12.02;;;2.80;99.90;;;;;;5053988;28;20037;-66
2022/12/03 02:40:00;;;;;;;20.85;12.55;;;2.80;99.90;;;;;;5053170;28;20513;-66
2022/12/03 02:42:35;;;;;;;20.38;11.95;;;2.80;99.90;;;;;;5053646;28;20066;-66
2022/12/03 02:45:30;;;;;;;20.95;12.02;;;2.80;99.90;;;;;;5053601;28;20056;-67
2022/12/03 02:48:18;;;;;;;17.08;11.30;;;2.80;99.90;;;;;;5049859;28;20120;-67
2022/12/03 02:50:50;;;;;;;19.67;11.43;;;2.80;99.90;;;;;;5052778;28;20156;-69
2022/12/03 02:53:19;;;;;;;19.92;11.50;;;2.80;99.90;;;;;;5053551;28;20029;-66
2022/12/03 02:55:46;;;;;;;21.55;11.32;;;2.80;99.90;;;;;;5053063;28;20098;-67
2022/12/03 02:58:12;;;;;;;21.58;11.40;;;2.80;99.90;;;;;;5053147;28;20039;-66
2022/12/03 03:00:38;;;;;;;18.50;10.63;;;2.80;99.90;;;;;;5052753;28;20112;-67
2022/12/03 03:03:06;;;;;;;20.42;11.85;;;2.80;99.90;;;;;;5053232;28;20377;-66
2022/12/03 03:05:33;;;;;;;20.15;11.43;;;2.80;99.90;;;;;;5053409;28;20355;-66
2022/12/03 03:08:00;;;;;;;19.38;11.00;;;2.80;99.90;;;;;;5053011;28;20024;-66
2022/12/03 03:10:27;;;;;;;20.10;10.55;;;2.80;99.90;;;;;;5053206;28;20037;-66
2022/12/03 03:12:55;;;;;;;23.13;12.10;;;2.90;99.90;;;;;;5052244;28;20037;-66
2022/12/03 03:15:22;;;;;;;21.73;11.48;;;2.80;99.90;;;;;;5054302;28;20327;-65
2022/12/03 03:17:48;;;;;;;20.23;12.27;;;2.90;99.90;;;;;;5054805;28;20029;-66
2022/12/03 03:20:14;;;;;;;23.33;12.70;;;2.90;99.90;;;;;;5069441;28;20036;-65
2022/12/03 03:22:41;;;;;;;21.88;12.35;;;2.80;99.90;;;;;;5059157;28;20040;-67
2022/12/03 03:25:11;;;;;;;21.58;12.07;;;2.80;99.90;;;;;;5061725;28;20428;-66
2022/12/03 03:27:38;;;;;;;21.98;12.82;;;2.80;99.90;;;;;;5052913;28;20025;-66
2022/12/03 03:30:05;;;;;;;25.15;13.02;;;2.80;99.90;;;;;;5052780;28;20486;-66
2022/12/03 03:32:30;;;;;;;21.15;12.82;;;2.80;99.90;;;;;;5052861;28;20028;-65
2022/12/03 03:34:57;;;;;;;23.55;13.30;;;2.90;99.90;;;;;;5052512;28;20469;-66
2022/12/03 03:37:23;;;;;;;24.95;13.85;;;2.90;99.90;;;;;;5052516;28;20131;-66
2022/12/03 03:39:49;;;;;;;30.08;14.98;;;2.90;99.90;;;;;;5052195;28;20454;-66
2022/12/03 03:42:15;;;;;;;25.73;14.02;;;2.90;99.90;;;;;;5052801;28;20086;-67
2022/12/03 03:44:41;;;;;;;25.45;14.70;;;2.90;99.90;;;;;;5052065;28;20044;-67
2022/12/03 03:47:06;;;;;;;24.75;13.73;;;2.90;99.90;;;;;;5051985;28;20033;-66
2022/12/03 03:49:32;;;;;;;25.90;13.98;;;2.90;99.90;;;;;;5052177;28;20387;-67
2022/12/03 03:51:58;;;;;;;25.67;15.32;;;2.90;99.90;;;;;;5052608;28;20036;-66
2022/12/03 03:54:24;;;;;;;24.45;14.52;;;2.90;99.90;;;;;;5052665;28;20033;-66
2022/12/03 03:56:50;;;;;;;24.17;13.68;;;2.90;99.90;;;;;;5050825;28;20086;-65
2022/12/03 03:59:16;;;;;;;24.88;13.65;;;2.90;99.90;;;;;;5052007;28;20469;-66
2022/12/03 04:01:43;;;;;;;26.75;15.00;;;2.90;99.90;;;;;;5052360;28;20032;-65
2022/12/03 04:04:18;;;;;;;25.17;13.95;;;2.90;99.90;;;;;;5052186;28;20386;-65
2022/12/03 04:06:44;;;;;;;26.67;16.13;;;2.90;99.90;;;;;;5051647;28;20036;-65
2022/12/03 04:09:10;;;;;;;26.63;14.35;;;3.00;99.90;;;;;;5052497;28;20025;-65
2022/12/03 04:14:20;;;;;;;23.73;13.05;;;3.00;99.90;;;;;;5052052;28;20039;-66
2022/12/03 04:16:45;;;;;;;23.92;12.77;;;3.00;99.90;;;;;;5051757;28;20032;-65
2022/12/03 04:19:11;;;;;;;21.63;12.48;;;2.90;99.90;;;;;;5052363;28;20021;-67
2022/12/03 04:24:20;;;;;;;20.95;12.25;;;3.00;99.90;;;;;;5051915;28;20404;-66
2022/12/03 04:29:30;;;;;;;21.15;12.38;;;2.90;99.90;;;;;;5051822;28;20051;-66
2022/12/03 04:37:24;;;;;;;23.27;12.32;;;3.00;99.90;;;;;;5051821;28;20500;-66
2022/12/03 04:39:50;;;;;;;19.17;11.30;;;2.90;99.90;;;;;;5051676;28;20025;-66
2022/12/03 04:42:15;;;;;;;20.77;12.52;;;2.90;99.90;;;;;;5051851;28;20037;-66
2022/12/03 04:44:41;;;;;;;21.92;12.38;;;2.90;99.90;;;;;;5051766;28;20025;-67
2022/12/03 04:47:15;;;;;;;23.80;12.60;;;2.90;99.90;;;;;;5051436;28;20029;-66
2022/12/03 04:49:43;;;;;;;23.50;13.55;;;3.00;99.90;;;;;;5052072;28;20025;-66
2022/12/03 04:52:10;;;;;;;23.58;13.52;;;3.00;99.90;;;;;;5051268;28;20025;-66
2022/12/03 04:54:37;;;;;;;24.42;14.27;;;3.00;99.90;;;;;;5051518;28;20040;-66
2022/12/03 04:57:04;;;;;;;27.50;15.52;;;2.90;99.90;;;;;;5051500;28;20029;-67
2022/12/03 04:59:29;;;;;;;25.40;14.95;;;2.90;99.90;;;;;;5053939;28;20017;-66
2022/12/03 05:01:55;;;;;;;26.80;14.38;;;2.90;99.90;;;;;;5055026;28;20087;-66
2022/12/03 05:04:21;;;;;;;26.25;14.48;;;2.90;99.90;;;;;;5055516;28;20457;-66
2022/12/03 05:06:46;;;;;;;28.23;15.80;;;2.90;99.90;;;;;;5055252;28;20484;-70
2022/12/03 05:09:12;;;;;;;29.00;14.02;;;2.90;99.90;;;;;;5055806;28;20028;-65
2022/12/03 05:11:38;;;;;;;24.25;13.30;;;2.90;99.90;;;;;;5055409;28;20021;-65
2022/12/03 05:14:04;;;;;;;26.33;14.55;;;2.90;99.90;;;;;;5054558;28;20461;-65
2022/12/03 05:16:30;;;;;;;25.88;14.27;;;2.90;99.90;;;;;;5055640;28;20036;-66
2022/12/03 05:18:56;;;;;;;28.52;15.30;;;2.90;99.90;;;;;;5054993;28;20052;-66
2022/12/03 05:21:21;;;;;;;27.35;15.10;;;2.90;99.90;;;;;;5054468;28;20036;-64
2022/12/03 05:23:47;;;;;;;29.95;15.43;;;2.90;99.90;;;;;;5055238;28;20103;-66
2022/12/03 05:26:13;;;;;;;23.38;13.77;;;2.90;99.90;;;;;;5053601;28;20120;-66
2022/12/03 05:28:39;;;;;;;25.85;14.60;;;2.90;99.90;;;;;;5055350;28;20055;-66
2022/12/03 05:31:04;;;;;;;26.58;14.70;;;2.90;99.90;;;;;;5054692;28;20040;-65
2022/12/03 05:33:30;;;;;;;25.80;14.48;;;2.90;99.90;;;;;;5055511;28;20029;-66
2022/12/03 05:35:56;;;;;;;27.80;15.15;;;2.90;99.90;;;;;;5054504;28;20123;-66
2022/12/03 05:38:21;;;;;;;29.30;15.02;;;2.90;99.90;;;;;;5053433;28;20059;-65
2022/12/03 05:40:47;;;;;;;28.77;15.80;;;2.90;99.90;;;;;;5055110;28;20052;-67
2022/12/03 05:43:13;;;;;;;30.23;15.20;;;2.90;99.90;;;;;;5054496;28;20078;-66
2022/12/03 05:45:40;;;;;;;29.42;15.32;;;2.90;99.90;;;;;;5054798;28;20029;-65
2022/12/03 05:48:08;;;;;;;28.10;14.63;;;2.90;99.90;;;;;;5054121;28;20043;-66
2022/12/03 05:50:36;;;;;;;24.85;14.48;;;2.90;99.90;;;;;;5054774;28;20033;-66
2022/12/03 05:53:02;;;;;;;30.75;15.27;;;2.90;99.90;;;;;;5054620;28;20413;-66
2022/12/03 05:55:28;;;;;;;25.88;13.75;;;2.90;99.90;;;;;;5054833;28;20025;-66
2022/12/03 05:57:53;;;;;;;31.50;16.77;;;3.00;99.90;;;;;;5054002;28;20028;-70
2022/12/03 06:00:28;;;;;;;31.38;16.05;;;3.00;99.90;;;;;;5054674;28;20021;-67
2022/12/03 06:02:53;;;;;;;28.27;15.68;;;3.00;99.90;;;;;;5054249;28;20175;-67
2022/12/03 06:05:20;;;;;;;29.58;16.10;;;3.00;99.90;;;;;;5054548;28;20060;-66
2022/12/03 06:07:47;;;;;;;32.50;17.35;;;3.00;99.90;;;;;;5053905;28;20033;-67
2022/12/03 06:10:16;;;;;;;28.85;16.30;;;3.00;99.90;;;;;;5033545;28;20091;-66
2022/12/03 06:12:42;;;;;;;31.27;15.73;;;3.00;99.90;;;;;;5034292;28;20053;-66
2022/12/03 06:15:08;;;;;;;28.50;16.25;;;3.00;99.90;;;;;;5034043;28;20061;-66
2022/12/03 06:17:34;;;;;;;30.52;15.75;;;3.00;99.90;;;;;;5034204;28;20041;-66
2022/12/03 06:20:00;;;;;;;33.05;16.58;;;3.00;99.90;;;;;;5034141;28;20025;-65
2022/12/03 06:22:25;;;;;;;30.20;15.43;;;3.00;99.90;;;;;;5034162;28;20026;-65
2022/12/03 06:24:51;;;;;;;32.80;15.90;;;3.00;99.90;;;;;;5034098;28;20035;-67
2022/12/03 06:27:17;;;;;;;35.80;17.13;;;3.00;99.90;;;;;;5033837;28;20470;-65
2022/12/03 06:29:43;;;;;;;32.83;16.42;;;3.00;99.90;;;;;;5034102;28;20429;-65
2022/12/03 06:32:09;;;;;;;30.85;16.25;;;3.00;99.90;;;;;;5033557;28;20108;-67
2022/12/03 06:34:34;;;;;;;30.73;15.73;;;3.00;99.90;;;;;;5033819;28;20463;-65
2022/12/03 06:37:00;;;;;;;31.90;16.65;;;3.00;99.90;;;;;;5033843;28;20140;-66
2022/12/03 06:39:26;;;;;;;29.98;16.27;;;3.00;99.90;;;;;;5033543;28;20104;-66
2022/12/03 06:41:51;;;;;;;30.65;16.08;;;3.10;99.90;;;;;;5033797;28;20370;-65
2022/12/03 06:44:17;;;;;;;30.50;16.80;;;3.10;99.90;;;;;;5033242;28;20105;-65
2022/12/03 06:46:42;;;;;;;34.20;17.75;;;3.10;99.90;;;;;;5033694;28;20032;-65
2022/12/03 06:49:08;;;;;;;34.42;17.38;;;3.10;99.90;;;;;;5032798;28;20378;-65
2022/12/03 06:51:35;;;;;;;30.27;15.80;;;3.10;99.90;;;;;;5033577;28;20060;-66
2022/12/03 06:54:01;;;;;;;33.10;16.98;;;3.10;99.90;;;;;;5033228;28;20034;-66
2022/12/03 06:56:27;;;;;;;37.55;17.67;;;3.10;99.90;;;;;;5033623;28;20479;-66
2022/12/03 06:58:53;;;;;;;33.80;17.42;;;3.10;99.90;;;;;;5052521;28;20056;-66
2022/12/03 07:01:19;;;;;;;30.45;16.45;;;3.10;99.90;;;;;;5062652;28;20073;-67
2022/12/03 07:03:45;;;;;;;32.90;17.10;;;3.10;99.90;;;;;;5073579;28;20136;-66
2022/12/03 07:06:11;;;;;;;32.38;16.95;;;3.10;99.90;;;;;;5072671;28;20473;-66
2022/12/03 07:08:36;;;;;;;36.25;18.60;;;3.10;99.90;;;;;;5072900;28;20027;-66
2022/12/03 07:11:02;;;;;;;35.35;17.38;;;3.10;99.90;;;;;;5073030;28;20032;-66
2022/12/03 07:13:28;;;;;;;35.72;17.92;;;3.10;99.90;;;;;;5073116;28;20086;-66
2022/12/03 07:15:53;;;;;;;36.30;19.02;;;3.10;99.90;;;;;;5071885;28;20028;-66
2022/12/03 07:18:19;;;;;;;33.40;18.65;;;3.10;99.90;;;;;;5072701;28;20523;-66
2022/12/03 07:20:44;;;;;;;35.10;17.92;;;3.10;99.90;;;;;;5073010;28;20550;-66
2022/12/03 07:23:10;;;;;;;40.55;20.40;;;3.00;99.90;;;;;;5072722;28;20104;-67
2022/12/03 07:25:36;;;;;;;39.65;19.00;;;3.10;99.90;;;;;;5062241;28;20032;-66
2022/12/03 07:28:02;;;;;;;37.85;18.80;;;3.10;99.90;;;;;;5050873;28;20115;-65
2022/12/03 07:30:27;;;;;;;38.58;18.50;;;3.10;99.90;;;;;;5052877;28;20068;-65
2022/12/03 07:32:53;;;;;;;38.40;18.70;;;3.10;99.90;;;;;;5052786;28;20433;-67
2022/12/03 07:35:19;;;;;;;39.55;19.58;;;3.10;99.90;;;;;;5052010;28;20060;-65
2022/12/03 07:37:44;;;;;;;41.10;20.27;;;3.10;99.90;;;;;;5052671;28;20438;-66
2022/12/03 07:40:11;;;;;;;39.47;20.05;;;3.10;99.90;;;;;;5052394;28;20108;-66
2022/12/03 07:42:36;;;;;;;35.35;17.90;;;3.10;99.90;;;;;;5052731;28;20074;-65
2022/12/03 07:45:02;;;;;;;38.90;20.05;;;3.20;99.90;;;;;;5052160;28;20412;-69
2022/12/03 07:47:28;;;;;;;40.45;19.90;;;3.20;99.90;;;;;;5052600;28;20029;-67
2022/12/03 07:49:54;;;;;;;39.60;19.85;;;3.20;99.90;;;;;;5052483;28;20380;-66
2022/12/03 07:52:19;;;;;;;37.35;19.30;;;3.20;99.90;;;;;;5052175;28;20473;-66
2022/12/03 07:54:45;;;;;;;38.58;20.63;;;3.20;99.90;;;;;;5052710;28;20029;-67
2022/12/03 07:57:10;;;;;;;32.72;18.40;;;3.20;99.90;;;;;;5052082;28;20036;-66
2022/12/03 07:59:36;;;;;;;34.88;18.27;;;3.20;99.90;;;;;;5052270;28;20032;-67
2022/12/03 08:02:02;;;;;;;47.70;19.63;;;3.30;99.90;;;;;;5052056;28;20462;-70
2022/12/03 08:04:28;;;;;;;34.78;19.50;;;3.30;99.90;;;;;;5051677;28;20110;-65
2022/12/03 08:06:53;;;;;;;33.28;19.50;;;3.30;99.90;;;;;;5052346;28;20086;-66
2022/12/03 08:09:19;;;;;;;38.15;19.35;;;3.30;99.90;;;;;;5052178;28;20035;-67
2022/12/03 08:11:47;;;;;;;38.38;21.77;;;3.30;99.90;;;;;;5052500;28;20029;-66
2022/12/03 08:14:15;;;;;;;39.65;21.63;;;3.30;99.90;;;;;;5052333;28;20430;-66
2022/12/03 08:16:42;;;;;;;41.83;22.17;;;3.40;99.90;;;;;;5052162;28;20381;-66
2022/12/03 08:19:13;;;;;;;41.33;21.90;;;3.40;99.90;;;;;;5052066;28;20458;-66
2022/12/03 08:21:39;;;;;;;37.40;20.55;;;3.40;99.90;;;;;;5051968;28;20473;-66
2022/12/03 08:24:20;;;;;;;43.78;22.75;;;3.40;99.90;;;;;;5051865;28;20102;-67
2022/12/03 08:26:47;;;;;;;40.00;22.15;;;3.40;99.90;;;;;;5052182;28;20112;-67
2022/12/03 08:29:17;;;;;;;42.67;22.13;;;3.40;99.90;;;;;;5051658;28;20465;-65
2022/12/03 08:31:53;;;;;;;42.45;23.25;;;3.50;99.90;;;;;;5051786;28;20052;-65
2022/12/03 08:34:26;;;;;;;42.50;22.67;;;3.50;99.90;;;;;;5053346;28;20096;-66
2022/12/03 08:37:00;;;;;;;44.65;22.75;;;3.50;99.90;;;;;;5056213;28;20067;-65
2022/12/03 08:39:40;;;;;;;47.03;22.75;;;3.50;99.90;;;;;;5055268;28;20037;-65
2022/12/03 08:42:42;;;;;;;43.92;23.02;;;3.50;99.90;;;;;;5055154;28;20481;-66
2022/12/03 08:45:30;;;;;;;42.83;22.83;;;3.60;99.90;;;;;;5055625;28;20131;-66
2022/12/03 08:48:03;;;;;;;42.88;21.95;;;3.60;99.90;;;;;;5055520;28;20466;-65
2022/12/03 08:50:39;;;;;;;41.15;22.55;;;3.60;99.90;;;;;;5055721;28;20043;-65
2022/12/03 08:53:29;;;;;;;41.20;22.58;;;3.60;99.90;;;;;;5055434;28;20396;-70
2022/12/03 08:56:00;;;;;;;39.78;20.63;;;3.60;99.90;;;;;;5055747;28;20025;-65
2022/12/03 08:58:37;;;;;;;42.72;23.00;;;3.60;99.90;;;;;;5055608;28;20040;-65
2022/12/03 09:01:12;;;;;;;45.13;24.95;;;3.70;99.90;;;;;;5055025;28;20132;-66
2022/12/03 09:03:45;;;;;;;44.17;23.00;;;3.70;99.90;;;;;;5055138;28;20108;-65
2022/12/03 09:06:10;;;;;;;45.33;22.30;;;3.70;99.90;;;;;;5055422;28;20032;-66
2022/12/03 09:08:36;;;;;;;38.00;21.73;;;3.70;99.90;;;;;;5055285;28;20028;-66
2022/12/03 09:11:01;;;;;;;42.67;23.55;;;3.70;99.90;;;;;;5055442;28;20424;-65
2022/12/03 09:13:27;;;;;;;40.97;22.98;;;3.70;99.90;;;;;;5055002;28;20374;-65
2022/12/03 09:15:53;;;;;;;43.53;25.52;;;3.70;99.90;;;;;;5055390;28;20025;-65
2022/12/03 09:18:18;;;;;;;40.33;22.08;;;3.80;99.90;;;;;;5054949;28;20017;-67
2022/12/03 09:20:44;;;;;;;41.25;23.08;;;3.80;99.90;;;;;;5054900;28;20029;-64
2022/12/03 09:23:09;;;;;;;35.75;21.75;;;3.80;99.90;;;;;;5054666;28;20036;-67
2022/12/03 09:25:35;;;;;;;34.53;21.40;;;3.80;99.90;;;;;;5055191;28;20065;-66
2022/12/03 09:28:01;;;;;;;34.33;20.77;;;3.80;99.90;;;;;;5055101;28;20052;-65
2022/12/03 09:30:27;;;;;;;34.72;21.52;;;3.80;99.90;;;;;;5054147;28;20017;-66
2022/12/03 09:32:52;;;;;;;35.38;22.08;;;3.80;99.90;;;;;;5055108;28;20033;-67
2022/12/03 09:35:18;;;;;;;35.78;21.60;;;3.90;99.90;;;;;;5054401;28;20041;-66
2022/12/03 09:37:44;;;;;;;38.10;21.92;;;3.90;99.90;;;;;;5054530;28;20116;-66
2022/12/03 09:40:10;;;;;;;37.10;21.00;;;3.90;99.90;;;;;;5054560;28;20028;-66
2022/12/03 09:42:36;;;;;;;35.20;21.42;;;3.90;99.90;;;;;;5054326;28;20385;-65
2022/12/03 09:45:06;;;;;;;33.47;20.13;;;3.90;99.90;;;;;;5053442;28;20037;-66
2022/12/03 09:47:31;;;;;;;36.75;20.58;;;3.90;99.90;;;;;;5054489;28;20052;-65
2022/12/03 09:49:57;;;;;;;40.00;22.38;;;4.00;99.90;;;;;;5054663;28;20055;-65
2022/12/03 09:52:26;;;;;;;35.13;21.13;;;3.90;99.90;;;;;;5055279;28;20032;-66
2022/12/03 09:54:52;;;;;;;34.13;20.92;;;4.00;99.90;;;;;;5057492;28;20031;-66
2022/12/03 09:57:18;;;;;;;35.95;21.10;;;4.00;99.90;;;;;;5057188;28;20104;-66
2022/12/03 09:59:44;;;;;;;37.30;21.98;;;4.00;99.90;;;;;;5056922;28;20025;-66
2022/12/03 10:02:29;;;;;;;33.53;20.65;;;4.10;99.90;;;;;;5056936;28;20090;-70
2022/12/03 10:04:56;;;;;;;38.40;21.85;;;4.10;99.90;;;;;;5057026;28;20057;-66
2022/12/03 10:07:23;;;;;;;35.33;21.13;;;4.10;99.90;;;;;;5056619;28;20484;-66
2022/12/03 10:09:49;;;;;;;42.22;23.45;;;4.10;99.90;;;;;;5055388;28;20032;-66
2022/12/03 10:12:22;;;;;;;40.63;22.48;;;4.10;99.90;;;;;;5053930;28;20477;-66
2022/12/03 10:14:48;;;;;;;40.65;21.75;;;4.20;99.90;;;;;;5054788;28;20037;-66
2022/12/03 10:17:13;;;;;;;39.00;20.83;;;4.20;99.90;;;;;;5054117;28;20029;-65
2022/12/03 10:19:41;;;;;;;44.08;23.08;;;4.20;99.90;;;;;;5054660;28;20040;-66
2022/12/03 10:22:07;;;;;;;44.35;22.58;;;4.20;99.90;;;;;;5054498;28;20021;-65
2022/12/03 10:24:35;;;;;;;41.33;23.67;;;4.20;99.90;;;;;;5053667;28;20358;-65
2022/12/03 10:27:21;;;;;;;44.33;22.25;;;4.20;99.90;;;;;;5054049;28;20028;-65
2022/12/03 10:29:58;;;;;;;41.15;22.10;;;4.20;99.90;;;;;;5053812;28;20108;-65
2022/12/03 10:32:26;;;;;;;42.55;22.58;;;4.20;99.90;;;;;;5053511;28;20128;-65
2022/12/03 10:35:10;;;;;;;42.28;24.15;;;4.20;99.90;;;;;;5053523;28;20440;-65
2022/12/03 10:37:36;;;;;;;47.65;24.83;;;4.20;99.90;;;;;;5053397;28;20054;-66
2022/12/03 10:40:11;;;;;;;45.47;24.25;;;4.20;99.90;;;;;;5053828;28;20024;-65
2022/12/03 10:42:39;;;;;;;43.03;22.35;;;4.20;99.90;;;;;;5053170;28;20178;-66
2022/12/03 10:45:14;;;;;;;45.03;23.42;;;4.30;99.90;;;;;;5053892;28;20033;-65
2022/12/03 10:47:40;;;;;;;40.33;21.60;;;4.30;99.90;;;;;;5053673;28;20036;-65
2022/12/03 10:50:17;;;;;;;43.38;22.60;;;4.30;99.90;;;;;;5052575;28;20357;-65
2022/12/03 10:52:44;;;;;;;50.20;24.08;;;4.30;99.90;;;;;;5054305;28;20032;-65
2022/12/03 10:55:12;;;;;;;48.08;24.60;;;4.30;99.90;;;;;;5054043;28;20021;-66
2022/12/03 10:57:38;;;;;;;47.13;23.00;;;4.20;99.90;;;;;;5052672;28;20029;-65
2022/12/03 11:00:05;;;;;;;49.53;23.50;;;4.30;99.90;;;;;;5053002;28;20114;-65
2022/12/03 11:02:31;;;;;;;51.88;25.17;;;4.30;99.90;;;;;;5052880;28;20033;-65
2022/12/03 11:04:57;;;;;;;47.05;24.10;;;4.30;99.90;;;;;;5052536;28;20132;-66
2022/12/03 11:07:23;;;;;;;51.97;26.75;;;4.30;99.90;;;;;;5052636;28;20025;-66
2022/12/03 11:09:53;;;;;;;58.65;26.63;;;4.30;99.90;;;;;;5052892;28;20485;-66
2022/12/03 11:12:26;;;;;;;60.42;26.85;;;4.30;99.90;;;;;;5052453;28;20410;-67
2022/12/03 11:14:55;;;;;;;54.53;26.35;;;4.30;99.90;;;;;;5052703;28;20036;-66
2022/12/03 11:17:24;;;;;;;57.63;26.08;;;4.30;99.90;;;;;;5052104;28;20033;-66
2022/12/03 11:19:50;;;;;;;60.22;28.45;;;4.30;99.90;;;;;;5052731;28;20025;-66
2022/12/03 11:22:24;;;;;;;68.70;28.38;;;4.20;99.90;;;;;;5052295;28;20025;-70
2022/12/03 11:25:28;;;;;;;69.30;29.45;;;4.20;99.90;;;;;;5052674;28;20032;-68
2022/12/03 11:28:12;;;;;;;67.53;29.25;;;4.20;99.90;;;;;;5052586;28;20024;-66
2022/12/03 11:30:52;;;;;;;66.38;30.10;;;4.10;99.90;;;;;;5052091;28;20504;-66
2022/12/03 11:33:30;;;;;;;66.43;29.60;;;4.10;99.90;;;;;;5052191;28;20029;-69
2022/12/03 11:36:18;;;;;;;68.18;31.05;;;4.10;99.90;;;;;;5052256;28;20049;-66
2022/12/03 11:38:47;;;;;;;66.95;30.95;;;4.00;99.90;;;;;;5052619;28;20028;-66
2022/12/03 11:41:14;;;;;;;64.03;29.92;;;4.00;99.90;;;;;;5052444;28;20074;-66
2022/12/03 11:43:52;;;;;;;61.22;28.15;;;4.00;99.90;;;;;;5052026;28;20120;-67
2022/12/03 11:46:40;;;;;;;67.10;29.27;;;4.00;99.90;;;;;;5052515;28;20083;-70
2022/12/03 11:49:23;;;;;;;67.93;28.88;;;3.90;99.90;;;;;;5052052;28;20075;-66
2022/12/03 11:51:49;;;;;;;63.58;29.40;;;3.90;99.90;;;;;;5052392;28;20032;-67
2022/12/03 11:54:17;;;;;;;70.50;28.38;;;3.90;99.90;;;;;;5052225;28;20036;-66
2022/12/03 11:56:47;;;;;;;67.90;29.40;;;3.90;99.90;;;;;;5051862;28;20525;-67
2022/12/03 11:59:14;;;;;;;64.60;30.23;;;3.90;99.90;;;;;;5052094;28;20543;-66
2022/12/03 12:01:41;;;;;;;63.92;28.05;;;3.90;99.90;;;;;;5051877;28;20021;-65
2022/12/03 12:04:30;;;;;;;61.03;27.67;;;3.80;99.90;;;;;;5051956;28;20037;-67
2022/12/03 12:06:55;;;;;;;60.88;28.50;;;3.90;99.90;;;;;;5051391;28;20082;-66
2022/12/03 12:09:50;;;;;;;56.50;26.05;;;3.90;99.90;;;;;;5051173;28;20035;-69
2022/12/03 12:12:24;;;;;;;55.03;26.65;;;3.90;99.90;;;;;;5052192;28;20434;-66
2022/12/03 12:14:50;;;;;;;54.78;25.52;;;3.90;99.90;;;;;;5050798;28;20033;-66
2022/12/03 12:17:30;;;;;;;54.83;26.73;;;3.90;99.90;;;;;;5052209;28;20036;-66
2022/12/03 12:20:25;;;;;;;52.17;25.70;;;3.90;99.90;;;;;;5052504;28;20048;-66
2022/12/03 12:22:53;;;;;;;58.10;26.85;;;3.90;99.90;;;;;;5051942;28;20060;-66
2022/12/03 12:25:39;;;;;;;57.97;26.05;;;3.90;99.90;;;;;;5051799;28;20051;-65
2022/12/03 12:28:05;;;;;;;61.45;28.60;;;3.90;99.90;;;;;;5052087;28;20103;-66
2022/12/03 12:30:31;;;;;;;54.78;25.33;;;3.90;99.90;;;;;;5051740;28;20133;-66
2022/12/03 12:33:06;;;;;;;56.85;26.30;;;3.90;99.90;;;;;;5052003;28;20052;-66
2022/12/03 12:35:31;;;;;;;56.25;27.35;;;3.90;99.90;;;;;;5051049;28;20045;-66
2022/12/03 12:38:06;;;;;;;54.88;26.77;;;3.90;99.90;;;;;;5052100;28;20029;-66
2022/12/03 12:40:35;;;;;;;54.53;26.13;;;3.90;99.90;;;;;;5051526;28;20029;-65
2022/12/03 12:43:09;;;;;;;57.65;26.65;;;3.90;99.90;;;;;;5052084;28;20033;-65
2022/12/03 12:45:38;;;;;;;59.22;26.02;;;4.00;99.90;;;;;;5051481;28;20051;-66
2022/12/03 12:48:13;;;;;;;52.17;26.70;;;3.90;99.90;;;;;;5052047;28;20029;-66
2022/12/03 12:50:45;;;;;;;57.90;26.63;;;4.00;99.90;;;;;;5051195;28;20502;-66
2022/12/03 12:53:27;;;;;;;55.63;25.63;;;4.00;99.90;;;;;;5050396;28;20470;-67
2022/12/03 12:56:05;;;;;;;60.22;25.73;;;4.00;99.90;;;;;;5035710;28;20017;-65
2022/12/03 12:58:32;;;;;;;58.30;27.08;;;4.00;99.90;;;;;;5051637;28;20032;-65